createdAt,value
2018-12-29T00:03:21.803Z,2.95
2018-12-29T00:08:26.886Z,2.94
2018-12-29T00:13:32.248Z,2.89
2018-12-29T00:18:38.237Z,2.86
2018-12-29T00:23:43.324Z,2.83
2018-12-29T00:28:48.405Z,2.81
2018-12-29T00:33:53.774Z,2.77
2018-12-29T00:38:59.594Z,2.73
2018-12-29T00:44:05.006Z,2.69
2018-12-29T00:49:10.254Z,2.68
2018-12-29T00:54:15.753Z,2.65
2018-12-29T00:59:20.762Z,2.63
2018-12-29T01:04:25.778Z,2.62
2018-12-29T01:09:30.973Z,2.66
2018-12-29T01:14:36.394Z,2.69
2018-12-29T01:19:41.573Z,2.74
2018-12-29T01:24:48.310Z,2.89
2018-12-29T01:29:53.738Z,2.94
2018-12-29T01:34:59.134Z,3.02
2018-12-29T01:40:04.396Z,3.07
2018-12-29T01:45:09.476Z,3.07
2018-12-29T01:50:14.636Z,3.08
2018-12-29T01:55:19.663Z,3.19
2018-12-29T02:00:24.780Z,3.15
2018-12-29T02:05:29.945Z,3.12
2018-12-29T02:10:35.434Z,3.10
2018-12-29T02:15:40.582Z,3.20
2018-12-29T02:20:45.934Z,3.26
2018-12-29T02:25:51.885Z,3.20
2018-12-29T02:30:57.293Z,3.23
2018-12-29T02:36:02.367Z,3.30
2018-12-29T02:41:08.470Z,3.17
2018-12-29T02:46:13.471Z,3.17
2018-12-29T02:51:18.831Z,3.24
2018-12-29T02:56:24.654Z,3.17
2018-12-29T03:01:29.856Z,3.31
2018-12-29T03:06:35.166Z,3.25
2018-12-29T03:11:40.471Z,3.22
2018-12-29T03:16:45.717Z,3.20
2018-12-29T03:21:51.619Z,3.12
2018-12-29T03:26:56.706Z,3.10
2018-12-29T03:32:02.216Z,3.03
2018-12-29T03:37:07.386Z,3.09
2018-12-29T03:42:12.471Z,3.32
2018-12-29T03:47:17.862Z,3.44
2018-12-29T03:52:22.978Z,3.36
2018-12-29T03:57:28.564Z,3.42
2018-12-29T04:02:33.742Z,3.35
2018-12-29T04:07:38.834Z,3.36
2018-12-29T04:12:47.369Z,3.33
2018-12-29T04:17:52.428Z,3.23
2018-12-29T04:22:57.979Z,3.33
2018-12-29T04:28:03.175Z,3.30
2018-12-29T04:33:08.763Z,3.20
2018-12-29T04:38:14.357Z,3.31
2018-12-29T04:43:19.843Z,3.26
2018-12-29T04:48:25.379Z,3.21
2018-12-29T04:53:31.050Z,3.20
2018-12-29T04:58:36.567Z,3.24
2018-12-29T05:03:42.098Z,3.28
2018-12-29T05:08:47.281Z,3.13
2018-12-29T05:13:53.494Z,3.12
2018-12-29T05:18:58.741Z,3.01
2018-12-29T05:24:04.029Z,3.13
2018-12-29T05:29:09.853Z,2.99
2018-12-29T05:34:15.484Z,2.90
2018-12-29T05:39:21.095Z,2.87
2018-12-29T05:44:26.273Z,2.88
2018-12-29T05:49:31.514Z,2.89
2018-12-29T05:54:36.749Z,2.94
2018-12-29T05:59:42.479Z,2.90
2018-12-29T06:04:47.706Z,2.92
2018-12-29T06:09:52.915Z,2.94
2018-12-29T06:14:58.381Z,2.95
2018-12-29T06:20:03.609Z,2.90
2018-12-29T06:25:08.794Z,2.83
2018-12-29T06:30:14.066Z,2.82
2018-12-29T06:35:19.287Z,2.83
2018-12-29T06:40:25.099Z,2.75
2018-12-29T06:45:30.294Z,2.66
2018-12-29T06:50:36.011Z,2.61
2018-12-29T06:55:41.185Z,2.57
2018-12-29T07:00:46.467Z,2.53
2018-12-29T07:05:51.667Z,2.50
2018-12-29T07:10:57.233Z,2.51
2018-12-29T07:16:02.438Z,2.50
2018-12-29T07:21:07.618Z,2.49
2018-12-29T07:26:12.809Z,2.49
2018-12-29T07:31:18.458Z,2.48
2018-12-29T07:36:23.646Z,2.50
2018-12-29T07:41:29.134Z,2.53
2018-12-29T07:46:34.954Z,2.54
2018-12-29T07:51:40.969Z,2.55
2018-12-29T07:56:46.181Z,2.54
2018-12-29T08:01:51.458Z,2.56
2018-12-29T08:06:57.148Z,2.60
2018-12-29T08:12:02.356Z,2.62
2018-12-29T08:17:07.921Z,2.66
2018-12-29T08:22:13.217Z,2.68
2018-12-29T08:27:18.701Z,2.69
2018-12-29T08:32:24.747Z,2.70
2018-12-29T08:37:30.352Z,2.73
2018-12-29T08:42:35.975Z,2.77
2018-12-29T08:47:41.231Z,2.80
2018-12-29T08:52:46.738Z,2.82
2018-12-29T08:57:52.411Z,2.83
2018-12-29T09:02:58.392Z,2.87
2018-12-29T09:08:03.582Z,2.90
2018-12-29T09:13:08.757Z,2.92
2018-12-29T09:18:13.982Z,2.93
2018-12-29T09:23:19.984Z,2.96
2018-12-29T09:28:25.187Z,2.95
2018-12-29T09:33:30.485Z,2.96
2018-12-29T09:38:35.975Z,2.98
2018-12-29T09:43:41.538Z,3.02
2018-12-29T09:48:46.863Z,3.07
2018-12-29T09:53:52.116Z,3.08
2018-12-29T09:58:57.315Z,3.11
2018-12-29T10:04:02.844Z,3.13
2018-12-29T10:09:08.504Z,3.21
2018-12-29T10:14:14.885Z,3.26
2018-12-29T10:19:20.802Z,3.31
2018-12-29T10:24:27.028Z,3.38
2018-12-29T10:29:32.233Z,3.48
2018-12-29T10:34:37.454Z,3.51
2018-12-29T10:39:43.043Z,3.57
2018-12-29T10:44:48.685Z,3.66
2018-12-29T10:49:53.944Z,3.73
2018-12-29T10:54:59.278Z,3.80
2018-12-29T11:00:07.103Z,3.82
2018-12-29T11:05:12.390Z,3.87
2018-12-29T11:10:17.789Z,3.91
2018-12-29T11:15:23.928Z,3.97
2018-12-29T11:20:29.114Z,4.04
2018-12-29T11:25:34.903Z,4.07
2018-12-29T11:30:40.223Z,4.12
2018-12-29T11:35:46.065Z,4.19
2018-12-29T11:40:51.301Z,4.35
2018-12-29T11:45:56.533Z,4.50
2018-12-29T11:51:01.924Z,4.58
2018-12-29T11:56:07.569Z,4.63
2018-12-29T12:01:12.833Z,4.70
2018-12-29T12:06:18.772Z,4.76
2018-12-29T12:11:24.552Z,4.78
2018-12-29T12:16:30.132Z,4.85
2018-12-29T12:21:35.379Z,4.86
2018-12-29T12:26:41.248Z,4.79
2018-12-29T12:31:46.603Z,4.79
2018-12-29T12:36:52.495Z,4.82
2018-12-29T12:41:57.675Z,4.87
2018-12-29T12:47:03.493Z,4.95
2018-12-29T12:52:09.269Z,5.04
2018-12-29T12:57:14.464Z,5.14
2018-12-29T13:02:20.230Z,5.24
2018-12-29T13:07:25.801Z,5.31
2018-12-29T13:12:31.415Z,5.35
2018-12-29T13:17:37.289Z,5.35
2018-12-29T13:22:42.987Z,5.35
2018-12-29T13:27:48.883Z,5.40
2018-12-29T13:32:54.694Z,5.42
2018-12-29T13:38:00.482Z,5.41
2018-12-29T13:43:06.457Z,5.40
2018-12-29T13:48:11.966Z,5.40
2018-12-29T13:53:17.326Z,5.39
2018-12-29T13:58:22.896Z,5.42
2018-12-29T14:03:28.521Z,5.42
2018-12-29T14:08:34.477Z,5.40
2018-12-29T14:13:40.011Z,5.38
2018-12-29T14:18:46.731Z,5.34
2018-12-29T14:23:52.220Z,5.33
2018-12-29T14:28:57.642Z,5.33
2018-12-29T14:34:02.984Z,5.33
2018-12-29T14:39:11.126Z,5.27
2018-12-29T14:44:16.443Z,5.23
2018-12-29T14:49:21.845Z,5.20
2018-12-29T14:54:27.098Z,5.17
2018-12-29T14:59:32.611Z,5.11
2018-12-29T15:04:38.508Z,5.06
2018-12-29T15:09:43.795Z,5.05
2018-12-29T15:14:49.209Z,4.99
2018-12-29T15:19:55.243Z,5.08
2018-12-29T15:25:00.875Z,5.08
2018-12-29T15:30:06.742Z,5.09
2018-12-29T15:35:13.463Z,5.00
2018-12-29T15:40:19.634Z,4.90
2018-12-29T15:45:25.423Z,4.79
2018-12-29T15:50:30.596Z,4.78
2018-12-29T15:55:36.616Z,4.77
2018-12-29T16:00:42.435Z,4.68
2018-12-29T16:05:48.714Z,4.59
2018-12-29T16:10:54.131Z,4.49
2018-12-29T16:16:01.227Z,4.40
2018-12-29T16:21:07.196Z,4.27
2018-12-29T16:26:23.506Z,4.05
2018-12-29T16:31:20.253Z,3.83
2018-12-29T16:36:25.448Z,3.63
2018-12-29T16:41:31.044Z,3.44
2018-12-29T16:46:36.871Z,3.30
2018-12-29T16:51:42.058Z,3.19
2018-12-29T16:56:47.237Z,3.11
2018-12-29T17:01:52.410Z,3.02
2018-12-29T17:06:57.985Z,2.99
2018-12-29T17:12:04.009Z,2.96
2018-12-29T17:17:09.804Z,2.95
2018-12-29T17:22:15.254Z,2.93
2018-12-29T17:27:20.425Z,2.88
2018-12-29T17:32:26.115Z,2.87
2018-12-29T17:37:31.960Z,2.84
2018-12-29T17:42:37.235Z,2.80
2018-12-29T17:47:42.951Z,2.78
2018-12-29T17:52:48.477Z,2.80
2018-12-29T17:57:54.354Z,2.80
2018-12-29T18:02:59.859Z,2.78
2018-12-29T18:08:05.337Z,2.84
2018-12-29T18:13:10.754Z,2.86
2018-12-29T18:18:15.970Z,2.90
2018-12-29T18:23:21.613Z,2.89
2018-12-29T18:28:26.791Z,2.87
2018-12-29T18:33:37.233Z,2.84
2018-12-29T18:38:39.294Z,2.83
2018-12-29T18:43:46.259Z,2.83
2018-12-29T18:48:51.816Z,2.79
2018-12-29T18:53:57.447Z,2.68
2018-12-29T18:59:03.051Z,2.52
2018-12-29T19:04:09.837Z,2.40
2018-12-29T19:09:15.972Z,2.33
2018-12-29T19:14:21.638Z,2.29
2018-12-29T19:19:27.209Z,2.27
2018-12-29T19:24:32.481Z,2.35
2018-12-29T19:29:37.668Z,2.40
2018-12-29T19:34:43.884Z,2.43
2018-12-29T19:39:50.576Z,2.46
2018-12-29T19:44:56.084Z,2.54
2018-12-29T19:50:02.120Z,2.59
2018-12-29T19:55:07.305Z,2.67
2018-12-29T20:00:13.148Z,2.77
2018-12-29T20:05:18.732Z,2.80
2018-12-29T20:10:24.233Z,2.78
2018-12-29T20:15:29.403Z,2.78
2018-12-29T20:20:34.984Z,2.79
2018-12-29T20:25:40.257Z,2.91
2018-12-29T20:30:45.882Z,3.06
2018-12-29T20:35:52.301Z,3.00
2018-12-29T20:40:57.489Z,2.93
2018-12-29T20:46:03.017Z,3.00
2018-12-29T20:51:09.493Z,2.97
2018-12-29T20:56:15.371Z,2.98
2018-12-29T21:01:21.544Z,3.10
2018-12-29T21:06:27.326Z,3.28
2018-12-29T21:11:32.547Z,3.32
2018-12-29T21:16:37.759Z,3.40
2018-12-29T21:21:42.995Z,3.51
2018-12-29T21:26:48.225Z,3.58
2018-12-29T21:31:53.508Z,3.57
2018-12-29T21:37:00.741Z,3.60
2018-12-29T21:42:06.555Z,3.66
2018-12-29T21:47:11.928Z,3.66
2018-12-29T21:52:17.323Z,3.74
2018-12-29T21:57:22.518Z,3.76
2018-12-29T22:02:27.807Z,3.79
2018-12-29T22:07:32.995Z,3.83
2018-12-29T22:12:38.289Z,3.76
2018-12-29T22:17:43.472Z,3.83
2018-12-29T22:22:48.925Z,3.73
2018-12-29T22:27:54.582Z,3.75
2018-12-29T22:33:00.344Z,3.78
2018-12-29T22:38:05.517Z,3.76
2018-12-29T22:43:11.913Z,3.72
2018-12-29T22:48:17.552Z,3.77
2018-12-29T22:53:25.049Z,3.74
2018-12-29T22:58:32.068Z,3.72
2018-12-29T23:03:38.379Z,3.77
2018-12-29T23:08:43.558Z,3.86
2018-12-29T23:13:50.397Z,3.84
2018-12-29T23:18:56.198Z,3.97
2018-12-29T23:24:02.287Z,4.04
2018-12-29T23:29:08.496Z,3.99
2018-12-29T23:34:13.773Z,3.97
2018-12-29T23:39:20.165Z,4.05
2018-12-29T23:44:25.721Z,4.12
2018-12-29T23:49:30.890Z,4.29
2018-12-29T23:54:36.583Z,4.30
2018-12-29T23:59:41.764Z,4.27
